Provincetown, MA

8:14 PM EDT on April 21, 2015 (GMT -0400)
Cape Cod | | Change Station
CLOSE
Current Station
Personal Weather Station
Location: Wellfleet, MA
Elevation: 66 ft
Nearby Weather Stations

Elev 66 ft 41.94 °N, 70.03 °W | Updated 11 minutes ago

Partly Cloudy
Partly Cloudy
55.2 °F
Feels Like 55.2 °F
N
3.8
Wind Variable Wind from NW

Today
High -- | Low -- °F
--% Chance of Precip.
Yesterday
High -- | Low -- °F
Precip. -- in
5:51 AM 7:28 PM
Waxing Crescent, 13% visible
Pressure 29.69 in
Visibility 10.0 miles
Clouds Clear
Dew Point 44 °F
Humidity 65%
Rainfall 1.28 in
Snow Depth Not available.
UV 0 out of 12
Pollen 4.30 out of 12
Air Quality Not available.
Flu Activity Widespread
METAR KGHG 212355Z AUTO 30003KT 10SM CLR 14/06 A2969 RMK AO2

More Conditions Fewer Conditions

Pressure 29.69 in
Visibility 10.0 miles
Clouds Clear
Dew Point 44 °F
Humidity 65%
Rainfall 1.28 in
Snow Depth Not available.
UV 0 out of 12
Pollen 4.30 out of 12
Air Quality Not available.
Flu Activity Widespread
METAR KGHG 212355Z AUTO 30003KT 10SM CLR 14/06 A2969 RMK AO2

More Conditions Fewer Conditions

10-Day Weather Forecast

Almanac

Astronomy

Apr. 21, 2015 Rise Set
Actual Time
Civil Twilight
Nautical Twilight
Astronomical Twilight
Moon
Length of Visible Light
Length of Day
Tomorrow will be .
, % of the Moon is Illuminated

Today's Extremes

State Highs State Lows

Community

WunderPhotos

Upload Photos

1,815,586 photos uploaded!

WunderBlogs® & News

Nearby

Air Quality

  Air Quality AQ Index Pollutant
Not available.

Snow Depth

Station Depth Elevation

Earthquake Activity

City Distance Mag. Time & Date
Minimum magnitude displayed is 2.5.

Coastal Water Temperatures

Place Temperature

Stations

Nearby Weather Stations

Station Location Temp. Windchill Dew Point Humidity Wind Precip. Elev Updated Type